createdAt,value
2018-05-16T00:00:47.617Z,101475.52
2018-05-16T00:03:13.653Z,101476.86
2018-05-16T00:05:39.705Z,101470.81
2018-05-16T00:08:05.722Z,101473.58
2018-05-16T00:10:31.763Z,101479.95
2018-05-16T00:12:57.836Z,101478.61
2018-05-16T00:15:23.838Z,101479.80
2018-05-16T00:17:49.921Z,101474.50
2018-05-16T00:20:15.988Z,101482.40
2018-05-16T00:22:41.996Z,101480.31
2018-05-16T00:25:08.018Z,101477.13
2018-05-16T00:27:34.025Z,101474.69
2018-05-16T00:30:00.135Z,101478.56
2018-05-16T00:32:27.136Z,101481.02
2018-05-16T00:34:53.133Z,101476.73
2018-05-16T00:37:19.164Z,101483.88
2018-05-16T00:39:45.213Z,101486.31
2018-05-16T00:42:11.233Z,101484.21
2018-05-16T00:44:37.243Z,101486.82
2018-05-16T00:47:03.345Z,101485.80
2018-05-16T00:49:29.394Z,101479.66
2018-05-16T00:51:55.406Z,101478.06
2018-05-16T00:54:21.438Z,101473.87
2018-05-16T00:56:47.461Z,101475.86
2018-05-16T00:59:13.569Z,101482.16
2018-05-16T01:01:39.647Z,101476.20
2018-05-16T01:04:05.654Z,101478.13
2018-05-16T01:06:31.699Z,101480.05
2018-05-16T01:08:57.750Z,101473.41
2018-05-16T01:11:23.784Z,101475.86
2018-05-16T01:13:49.804Z,101475.34
2018-05-16T01:16:15.881Z,101479.03
2018-05-16T01:18:41.934Z,101472.89
2018-05-16T01:21:07.959Z,101471.05
2018-05-16T01:23:34.003Z,101480.27
2018-05-16T01:26:00.028Z,101477.42
2018-05-16T01:28:26.076Z,101472.98
2018-05-16T01:30:52.091Z,101484.98
2018-05-16T01:33:18.095Z,101484.83
2018-05-16T01:35:44.106Z,101483.40
2018-05-16T01:38:10.155Z,101483.56
2018-05-16T01:40:36.166Z,101474.98
2018-05-16T01:43:02.188Z,101481.03
2018-05-16T01:45:28.289Z,101475.16
2018-05-16T01:47:54.292Z,101480.71
2018-05-16T01:50:20.326Z,101477.45
2018-05-16T01:52:46.416Z,101479.37
2018-05-16T01:55:12.942Z,101478.45
2018-05-16T01:57:39.950Z,101483.64
2018-05-16T02:00:05.934Z,101486.41
2018-05-16T02:02:32.198Z,101493.97
2018-05-16T02:04:58.917Z,101496.39
2018-05-16T02:07:25.046Z,101496.23
2018-05-16T02:09:51.065Z,101495.31
2018-05-16T02:12:17.065Z,101491.44
2018-05-16T02:14:43.129Z,101490.17
2018-05-16T02:17:09.158Z,101498.09
2018-05-16T02:19:35.179Z,101496.83
2018-05-16T02:22:01.221Z,101495.21
2018-05-16T02:24:27.281Z,101491.78
2018-05-16T02:26:53.305Z,101499.27
2018-05-16T02:29:19.314Z,101498.31
2018-05-16T02:31:45.442Z,101497.90
2018-05-16T02:34:11.487Z,101497.40
2018-05-16T02:36:37.509Z,101494.73
2018-05-16T02:39:04.514Z,101496.75
2018-05-16T02:41:30.567Z,101502.89
2018-05-16T02:43:56.800Z,101500.28
2018-05-16T02:46:22.822Z,101496.94
2018-05-16T02:48:49.255Z,101501.03
2018-05-16T02:51:15.284Z,101501.87
2018-05-16T02:53:41.290Z,101497.34
2018-05-16T02:56:07.394Z,101494.55
2018-05-16T02:58:33.450Z,101495.55
2018-05-16T03:00:59.490Z,101492.36
2018-05-16T03:03:25.566Z,101488.17
2018-05-16T03:05:51.586Z,101485.84
2018-05-16T03:08:17.591Z,101475.45
2018-05-16T03:10:43.614Z,101482.52
2018-05-16T03:13:09.957Z,101482.95
2018-05-16T03:15:35.985Z,101491.52
2018-05-16T03:18:02.070Z,101495.46
2018-05-16T03:20:28.109Z,101497.41
2018-05-16T03:22:54.202Z,101500.09
2018-05-16T03:25:20.773Z,101494.55
2018-05-16T03:27:46.893Z,101500.09
2018-05-16T03:30:13.010Z,101497.41
2018-05-16T03:32:39.367Z,101493.72
2018-05-16T03:35:05.395Z,101494.14
2018-05-16T03:37:31.437Z,101498.83
2018-05-16T03:39:57.461Z,101508.73
2018-05-16T03:42:23.501Z,101509.76
2018-05-16T03:44:49.519Z,101499.59
2018-05-16T03:47:15.541Z,101503.12
2018-05-16T03:49:41.979Z,101500.52
2018-05-16T03:52:07.985Z,101490.59
2018-05-16T03:54:33.990Z,101488.41
2018-05-16T03:57:00.010Z,101490.84
2018-05-16T03:59:38.131Z,101490.25
2018-05-16T04:02:16.494Z,101492.11
2018-05-16T04:04:42.446Z,101492.70
2018-05-16T04:07:08.442Z,101492.44
2018-05-16T04:09:34.530Z,101488.91
2018-05-16T04:12:00.627Z,101496.39
2018-05-16T04:14:26.904Z,101499.85
2018-05-16T04:16:52.907Z,101507.16
2018-05-16T04:19:18.965Z,101508.92
2018-05-16T04:21:45.058Z,101512.89
2018-05-16T04:24:11.094Z,101507.51
2018-05-16T04:26:37.140Z,101506.23
2018-05-16T04:29:03.144Z,101519.27
2018-05-16T04:31:29.292Z,101515.39
2018-05-16T04:33:55.342Z,101515.81
2018-05-16T04:36:21.368Z,101509.52
2018-05-16T04:38:47.413Z,101515.16
2018-05-16T04:41:13.429Z,101520.30
2018-05-16T04:43:39.497Z,101518.44
2018-05-16T04:46:05.524Z,101518.09
2018-05-16T04:48:31.605Z,101515.02
2018-05-16T04:50:57.633Z,101524.52
2018-05-16T04:53:23.651Z,101522.69
2018-05-16T04:55:49.682Z,101522.61
2018-05-16T04:58:15.747Z,101523.70
2018-05-16T05:00:42.906Z,101527.23
2018-05-16T05:03:09.043Z,101520.52
2018-05-16T05:05:35.122Z,101527.48
2018-05-16T05:08:01.162Z,101530.44
2018-05-16T05:10:27.186Z,101529.86
2018-05-16T05:12:53.334Z,101526.24
2018-05-16T05:15:19.672Z,101537.09
2018-05-16T05:17:45.723Z,101527.33
2018-05-16T05:20:11.729Z,101538.01
2018-05-16T05:22:37.800Z,101535.48
2018-05-16T05:25:03.844Z,101536.08
2018-05-16T05:27:29.854Z,101544.06
2018-05-16T05:29:55.867Z,101548.10
2018-05-16T05:32:22.146Z,101551.64
2018-05-16T05:34:48.519Z,101547.02
2018-05-16T05:37:14.820Z,101558.20
2018-05-16T05:39:40.841Z,101560.14
2018-05-16T05:42:06.929Z,101560.23
2018-05-16T05:44:33.077Z,101562.67
2018-05-16T05:46:59.101Z,101562.58
2018-05-16T05:49:25.126Z,101564.25
2018-05-16T05:51:51.186Z,101565.52
2018-05-16T05:54:17.368Z,101571.05
2018-05-16T05:56:43.371Z,101574.84
2018-05-16T05:59:09.395Z,101572.16
2018-05-16T06:01:35.503Z,101578.06
2018-05-16T06:04:01.525Z,101594.29
2018-05-16T06:06:27.550Z,101593.06
2018-05-16T06:08:53.622Z,101595.00
2018-05-16T06:11:19.638Z,101601.91
2018-05-16T06:13:45.665Z,101598.38
2018-05-16T06:16:11.673Z,101602.34
2018-05-16T06:18:37.679Z,101600.30
2018-05-16T06:21:03.690Z,101601.00
2018-05-16T06:23:29.723Z,101609.18
2018-05-16T06:25:55.736Z,101602.90
2018-05-16T06:28:21.753Z,101603.13
2018-05-16T06:30:47.827Z,101597.82
2018-05-16T06:33:13.891Z,101602.45
2018-05-16T06:35:39.999Z,101602.16
2018-05-16T06:38:06.091Z,101607.94
2018-05-16T06:40:32.088Z,101608.92
2018-05-16T06:42:58.199Z,101617.95
2018-05-16T06:45:24.330Z,101617.25
2018-05-16T06:47:50.394Z,101617.52
2018-05-16T06:50:16.438Z,101620.16
2018-05-16T06:52:42.915Z,101623.36
2018-05-16T06:55:09.564Z,101623.55
2018-05-16T06:57:35.998Z,101633.28
2018-05-16T07:00:02.030Z,101632.20
2018-05-16T07:02:28.079Z,101639.55
2018-05-16T07:04:54.190Z,101642.88
2018-05-16T07:07:20.723Z,101650.09
2018-05-16T07:09:46.849Z,101646.69
2018-05-16T07:12:13.487Z,101649.88
2018-05-16T07:14:39.573Z,101654.11
2018-05-16T07:17:05.701Z,101650.64
2018-05-16T07:19:31.850Z,101656.79
2018-05-16T07:21:57.914Z,101653.51
2018-05-16T07:24:24.167Z,101656.87
2018-05-16T07:26:50.241Z,101655.50
2018-05-16T07:29:16.289Z,101659.84
2018-05-16T07:31:42.425Z,101655.97
2018-05-16T07:34:08.524Z,101654.98
2018-05-16T07:36:34.673Z,101651.53
2018-05-16T07:39:00.728Z,101660.35
2018-05-16T07:41:26.820Z,101658.71
2018-05-16T07:43:53.020Z,101667.32
2018-05-16T07:46:19.177Z,101667.13
2018-05-16T07:48:45.274Z,101676.25
2018-05-16T07:51:11.410Z,101674.36
2018-05-16T07:53:37.415Z,101672.05
2018-05-16T07:56:03.588Z,101673.07
2018-05-16T07:58:29.615Z,101675.20
2018-05-16T08:00:55.677Z,101669.47
2018-05-16T08:03:21.760Z,101672.41
2018-05-16T08:05:47.770Z,101671.79
2018-05-16T08:08:13.822Z,101673.48
2018-05-16T08:10:39.921Z,101669.33
2018-05-16T08:13:05.963Z,101676.84
2018-05-16T08:15:31.982Z,101669.19
2018-05-16T08:17:57.995Z,101668.56
2018-05-16T08:20:24.127Z,101676.95
2018-05-16T08:22:50.222Z,101675.01
2018-05-16T08:25:16.296Z,101682.47
2018-05-16T08:27:42.378Z,101674.34
2018-05-16T08:30:08.665Z,101678.70
2018-05-16T08:32:34.738Z,101673.74
2018-05-16T08:35:00.786Z,101684.89
2018-05-16T08:37:26.834Z,101682.90
2018-05-16T08:39:53.080Z,101684.61
2018-05-16T08:42:19.220Z,101688.64
2018-05-16T08:44:45.869Z,101685.42
2018-05-16T08:47:11.922Z,101691.84
2018-05-16T08:49:37.983Z,101692.89
2018-05-16T08:52:04.054Z,101694.14
2018-05-16T08:54:30.171Z,101696.38
2018-05-16T08:56:56.207Z,101697.48
2018-05-16T08:59:22.257Z,101699.70
2018-05-16T09:01:48.337Z,101707.87
2018-05-16T09:04:14.394Z,101705.78
2018-05-16T09:06:40.478Z,101707.17
2018-05-16T09:09:06.527Z,101711.16
2018-05-16T09:11:32.642Z,101708.74
2018-05-16T09:13:58.781Z,101709.52
2018-05-16T09:16:24.834Z,101713.47
2018-05-16T09:18:50.886Z,101709.19
2018-05-16T09:21:16.982Z,101715.81
2018-05-16T09:23:43.041Z,101717.17
2018-05-16T09:26:09.365Z,101725.56
2018-05-16T09:28:36.977Z,101725.73
2018-05-16T09:31:03.100Z,101730.83
2018-05-16T09:33:30.086Z,101725.52
2018-05-16T09:35:56.099Z,101732.19
2018-05-16T09:38:22.120Z,101730.56
2018-05-16T09:40:48.185Z,101741.35
2018-05-16T09:43:14.219Z,101740.75
2018-05-16T09:45:40.259Z,101734.33
2018-05-16T09:48:06.273Z,101737.15
2018-05-16T09:50:32.315Z,101743.48
2018-05-16T09:52:58.542Z,101750.17
2018-05-16T09:55:24.645Z,101755.46
2018-05-16T09:57:50.724Z,101758.84
2018-05-16T10:00:16.818Z,101764.12
2018-05-16T10:02:42.956Z,101763.52
2018-05-16T10:05:08.983Z,101769.02
2018-05-16T10:07:35.074Z,101765.43
2018-05-16T10:10:01.110Z,101779.19
2018-05-16T10:12:27.264Z,101774.21
2018-05-16T10:14:53.776Z,101777.62
2018-05-16T10:17:19.865Z,101782.78
2018-05-16T10:19:45.994Z,101783.55
2018-05-16T10:22:12.037Z,101788.89
2018-05-16T10:24:38.075Z,101789.50
2018-05-16T10:27:04.209Z,101790.57
2018-05-16T10:29:30.291Z,101787.77
2018-05-16T10:31:56.385Z,101777.27
2018-05-16T10:34:22.592Z,101780.85
2018-05-16T10:36:48.541Z,101783.75
2018-05-16T10:39:14.614Z,101789.95
2018-05-16T10:41:40.754Z,101788.18
2018-05-16T10:44:06.853Z,101778.89
2018-05-16T10:46:33.009Z,101787.92
2018-05-16T10:48:59.065Z,101791.44
2018-05-16T10:51:25.199Z,101783.63
2018-05-16T10:53:51.378Z,101782.80
2018-05-16T10:56:18.151Z,101789.84
2018-05-16T10:58:44.216Z,101787.91
2018-05-16T11:01:10.270Z,101792.94
2018-05-16T11:03:36.329Z,101793.05
2018-05-16T11:06:02.472Z,101802.07
2018-05-16T11:08:28.674Z,101801.66
2018-05-16T11:10:54.720Z,101810.16
2018-05-16T11:13:20.839Z,101807.16
2018-05-16T11:15:46.974Z,101809.22
2018-05-16T11:18:13.148Z,101810.39
2018-05-16T11:20:39.171Z,101810.48
2018-05-16T11:23:05.214Z,101813.91
2018-05-16T11:25:31.297Z,101812.21
2018-05-16T11:27:58.254Z,101813.95
2018-05-16T11:30:24.371Z,101806.78
2018-05-16T11:32:50.431Z,101806.84
2018-05-16T11:35:16.567Z,101808.95
2018-05-16T11:37:42.630Z,101815.42
2018-05-16T11:40:08.749Z,101816.39
2018-05-16T11:42:34.810Z,101815.12
2018-05-16T11:45:00.969Z,101823.67
2018-05-16T11:47:27.038Z,101811.66
2018-05-16T11:49:53.177Z,101818.22
2018-05-16T11:52:19.349Z,101822.47
2018-05-16T11:54:45.387Z,101821.80
2018-05-16T11:57:11.431Z,101826.16
2018-05-16T11:59:37.459Z,101825.88
2018-05-16T12:02:03.939Z,101832.23
2018-05-16T12:04:30.034Z,101823.30
2018-05-16T12:06:56.093Z,101825.14
2018-05-16T12:09:22.178Z,101818.84
2018-05-16T12:11:48.217Z,101835.94
2018-05-16T12:14:14.250Z,101827.88
2018-05-16T12:16:40.284Z,101824.70
2018-05-16T12:19:06.359Z,101817.95
2018-05-16T12:21:32.430Z,101824.48
2018-05-16T12:23:58.484Z,101833.53
2018-05-16T12:26:24.536Z,101824.17
2018-05-16T12:28:50.763Z,101820.86
2018-05-16T12:31:16.922Z,101826.25
2018-05-16T12:33:43.040Z,101824.50
2018-05-16T12:36:09.203Z,101841.84
2018-05-16T12:38:35.238Z,101827.95
2018-05-16T12:41:01.649Z,101845.88
2018-05-16T12:43:29.637Z,101843.15
2018-05-16T12:45:55.687Z,101848.03
2018-05-16T12:48:21.727Z,101861.83
2018-05-16T12:50:47.754Z,101828.34
2018-05-16T12:53:13.832Z,101845.23
2018-05-16T12:55:39.978Z,101851.94
2018-05-16T12:58:05.998Z,101866.70
2018-05-16T13:00:32.022Z,101854.36
2018-05-16T13:02:58.045Z,101865.81
2018-05-16T13:05:24.208Z,101863.38
2018-05-16T13:07:50.245Z,101868.38
2018-05-16T13:10:16.330Z,101873.02
2018-05-16T13:12:42.342Z,101871.56
2018-05-16T13:15:08.411Z,101861.73
2018-05-16T13:17:34.494Z,101868.77
2018-05-16T13:20:00.519Z,101868.01
2018-05-16T13:22:26.580Z,101865.14
2018-05-16T13:24:52.638Z,101871.48
2018-05-16T13:27:18.723Z,101874.05
2018-05-16T13:29:45.019Z,101875.77
2018-05-16T13:32:11.051Z,101886.34
2018-05-16T13:34:37.087Z,101870.19
2018-05-16T13:37:03.182Z,101884.50
2018-05-16T13:39:29.267Z,101881.33
2018-05-16T13:41:55.303Z,101880.73
2018-05-16T13:44:21.332Z,101876.94
2018-05-16T13:46:47.544Z,101880.60
2018-05-16T13:49:13.521Z,101894.41
2018-05-16T13:51:39.615Z,101894.41
2018-05-16T13:54:05.678Z,101890.23
2018-05-16T13:56:31.739Z,101892.83
2018-05-16T13:58:57.803Z,101894.58
2018-05-16T14:01:23.890Z,101900.14
2018-05-16T14:03:49.905Z,101897.45
2018-05-16T14:06:15.947Z,101893.68
2018-05-16T14:08:41.981Z,101890.08
2018-05-16T14:11:08.056Z,101885.16
2018-05-16T14:13:34.118Z,101896.67
2018-05-16T14:16:00.154Z,101888.97
2018-05-16T14:18:26.270Z,101896.38
2018-05-16T14:20:52.340Z,101903.06
2018-05-16T14:23:18.453Z,101905.81
2018-05-16T14:25:44.694Z,101897.73
2018-05-16T14:28:11.465Z,101895.84
2018-05-16T14:30:37.526Z,101896.52
2018-05-16T14:33:03.592Z,101903.15
2018-05-16T14:35:29.617Z,101911.98
2018-05-16T14:37:55.723Z,101900.66
2018-05-16T14:40:21.738Z,101896.17
2018-05-16T14:42:47.905Z,101893.16
2018-05-16T14:45:13.917Z,101905.04
2018-05-16T14:47:39.946Z,101907.53
2018-05-16T14:50:05.962Z,101898.67
2018-05-16T14:52:32.018Z,101902.41
2018-05-16T14:54:58.114Z,101903.01
2018-05-16T14:57:24.158Z,101898.11
2018-05-16T14:59:50.192Z,101905.30
2018-05-16T15:02:16.239Z,101909.14
2018-05-16T15:04:42.294Z,101902.39
2018-05-16T15:07:08.423Z,101897.10
2018-05-16T15:09:34.513Z,101904.37
2018-05-16T15:12:00.629Z,101898.59
2018-05-16T15:14:26.647Z,101905.36
2018-05-16T15:16:52.858Z,101905.63
2018-05-16T15:19:19.090Z,101897.09
2018-05-16T15:21:45.183Z,101911.00
2018-05-16T15:24:11.247Z,101902.48
2018-05-16T15:26:37.284Z,101894.66
2018-05-16T15:29:03.309Z,101906.35
2018-05-16T15:31:30.032Z,101897.96
2018-05-16T15:33:56.124Z,101904.74
2018-05-16T15:36:22.142Z,101913.32
2018-05-16T15:38:48.184Z,101913.80
2018-05-16T15:41:14.289Z,101908.77
2018-05-16T15:43:40.530Z,101915.30
2018-05-16T15:46:06.977Z,101903.80
2018-05-16T15:48:33.587Z,101888.72
2018-05-16T15:50:59.694Z,101911.42
2018-05-16T15:53:25.783Z,101900.94
2018-05-16T15:55:51.863Z,101905.34
2018-05-16T15:58:17.926Z,101899.77
2018-05-16T16:00:43.967Z,101907.21
2018-05-16T16:03:10.011Z,101904.37
2018-05-16T16:05:36.113Z,101903.81
2018-05-16T16:08:02.227Z,101901.36
2018-05-16T16:10:28.177Z,101903.00
2018-05-16T16:12:54.197Z,101911.72
2018-05-16T16:15:20.233Z,101906.23
2018-05-16T16:17:46.301Z,101911.14
2018-05-16T16:20:12.303Z,101901.02
2018-05-16T16:22:38.317Z,101908.70
2018-05-16T16:25:04.346Z,101906.16
2018-05-16T16:27:30.402Z,101905.16
2018-05-16T16:29:56.482Z,101922.79
2018-05-16T16:32:22.574Z,101915.53
2018-05-16T16:34:48.641Z,101912.38
2018-05-16T16:37:14.692Z,101929.42
2018-05-16T16:39:40.752Z,101916.70
2018-05-16T16:42:07.415Z,101915.99
2018-05-16T16:44:33.487Z,101924.87
2018-05-16T16:46:59.559Z,101920.24
2018-05-16T16:49:25.631Z,101928.29
2018-05-16T16:51:51.687Z,101922.12
2018-05-16T16:54:17.718Z,101947.47
2018-05-16T16:56:43.838Z,101931.34
2018-05-16T16:59:09.932Z,101929.72
2018-05-16T17:01:36.075Z,101942.97
2018-05-16T17:04:02.108Z,101924.13
2018-05-16T17:06:28.161Z,101931.91
2018-05-16T17:08:54.324Z,101936.52
2018-05-16T17:11:20.400Z,101934.62
2018-05-16T17:13:46.574Z,101931.66
2018-05-16T17:16:12.671Z,101943.33
2018-05-16T17:18:38.720Z,101940.02
2018-05-16T17:21:04.818Z,101943.62
2018-05-16T17:23:30.987Z,101943.11
2018-05-16T17:25:57.208Z,101955.44
2018-05-16T17:28:23.364Z,101944.30
2018-05-16T17:30:49.481Z,101943.88
2018-05-16T17:33:15.668Z,101947.22
2018-05-16T17:35:41.852Z,101955.09
2018-05-16T17:38:07.938Z,101949.88
2018-05-16T17:40:34.097Z,101947.79
2018-05-16T17:43:00.156Z,101962.84
2018-05-16T17:45:26.262Z,101964.22
2018-05-16T17:47:52.353Z,101962.27
2018-05-16T17:50:18.497Z,101972.36
2018-05-16T17:52:44.706Z,101979.77
2018-05-16T17:55:10.834Z,101982.45
2018-05-16T17:57:36.962Z,101981.36
2018-05-16T18:00:03.188Z,101996.13
2018-05-16T18:02:29.230Z,101991.49
2018-05-16T18:04:55.380Z,101992.96
2018-05-16T18:07:22.427Z,101996.20
2018-05-16T18:09:48.490Z,102010.20
2018-05-16T18:12:14.539Z,102005.06
2018-05-16T18:15:01.596Z,102010.75
2018-05-16T18:17:27.770Z,102009.97
2018-05-16T18:19:53.797Z,102007.19
2018-05-16T18:22:19.869Z,102007.43
2018-05-16T18:24:45.915Z,102011.12
2018-05-16T18:27:11.974Z,102009.93
2018-05-16T18:29:37.995Z,102013.46
2018-05-16T18:32:04.001Z,102011.34
2018-05-16T18:34:30.171Z,102013.18
2018-05-16T18:36:56.239Z,102020.52
2018-05-16T18:39:22.365Z,102017.82
2018-05-16T18:41:48.401Z,102023.91
2018-05-16T18:44:14.530Z,102019.67
2018-05-16T18:46:40.568Z,102026.31
2018-05-16T18:49:06.685Z,102027.19
2018-05-16T18:51:32.764Z,102026.91
2018-05-16T18:53:58.806Z,102016.81
2018-05-16T18:56:24.925Z,102038.55
2018-05-16T18:58:51.049Z,102035.52
2018-05-16T19:01:17.193Z,102039.60
2018-05-16T19:03:43.232Z,102047.02
2018-05-16T19:06:09.302Z,102056.91
2018-05-16T19:08:35.387Z,102051.27
2018-05-16T19:11:01.482Z,102056.89
2018-05-16T19:13:27.552Z,102058.50
2018-05-16T19:15:53.609Z,102060.33
2018-05-16T19:18:20.658Z,102069.48
2018-05-16T19:20:46.888Z,102070.91
2018-05-16T19:23:13.055Z,102074.91
2018-05-16T19:25:39.198Z,102070.31
2018-05-16T19:28:05.225Z,102064.39
2018-05-16T19:30:31.311Z,102073.33
2018-05-16T19:32:58.002Z,102076.57
2018-05-16T19:35:24.093Z,102074.82
2018-05-16T19:37:50.133Z,102068.30
2018-05-16T19:40:16.177Z,102084.45
2018-05-16T19:42:42.290Z,102096.87
2018-05-16T19:45:08.578Z,102091.84
2018-05-16T19:47:34.636Z,102096.45
2018-05-16T19:50:00.745Z,102108.20
2018-05-16T19:52:26.759Z,102111.58
2018-05-16T19:54:52.851Z,102113.58
2018-05-16T19:57:19.006Z,102118.22
2018-05-16T19:59:45.060Z,102115.67
2018-05-16T20:02:11.143Z,102124.04
2018-05-16T20:04:37.266Z,102130.21
2018-05-16T20:07:03.342Z,102133.97
2018-05-16T20:09:29.407Z,102130.05
2018-05-16T20:11:55.489Z,102139.78
2018-05-16T20:14:21.650Z,102145.50
2018-05-16T20:16:47.749Z,102151.77
2018-05-16T20:19:13.798Z,102143.53
2018-05-16T20:21:39.851Z,102136.31
2018-05-16T20:24:06.648Z,102143.44
2018-05-16T20:26:33.276Z,102149.12
2018-05-16T20:28:59.359Z,102148.66
2018-05-16T20:31:25.506Z,102146.86
2018-05-16T20:33:51.633Z,102159.11
2018-05-16T20:36:18.077Z,102163.42
2018-05-16T20:38:44.174Z,102168.12
2018-05-16T20:41:10.451Z,102163.91
2018-05-16T20:43:36.798Z,102170.14
2018-05-16T20:46:03.151Z,102172.77
2018-05-16T20:48:30.416Z,102177.59
2018-05-16T20:50:56.531Z,102175.11
2018-05-16T20:53:23.182Z,102164.53
2018-05-16T20:55:50.775Z,102161.33
2018-05-16T20:58:17.894Z,102162.18
2018-05-16T21:00:44.045Z,102170.38
2018-05-16T21:03:10.169Z,102170.93
2018-05-16T21:05:36.264Z,102169.47
2018-05-16T21:08:02.309Z,102168.68
2018-05-16T21:10:28.338Z,102175.80
2018-05-16T21:12:54.419Z,102173.28
2018-05-16T21:15:20.539Z,102172.77
2018-05-16T21:17:47.025Z,102173.48
2018-05-16T21:20:13.059Z,102182.89
2018-05-16T21:22:39.095Z,102179.39
2018-05-16T21:25:05.150Z,102180.34
2018-05-16T21:27:32.077Z,102181.52
2018-05-16T21:29:58.250Z,102187.20
2018-05-16T21:32:24.320Z,102180.11
2018-05-16T21:34:50.380Z,102186.94
2018-05-16T21:37:16.601Z,102189.45
2018-05-16T21:39:42.630Z,102188.91
2018-05-16T21:42:09.292Z,102189.50
2018-05-16T21:44:35.461Z,102186.98
2018-05-16T21:47:01.593Z,102185.71
2018-05-16T21:49:27.702Z,102196.16
2018-05-16T21:51:53.746Z,102192.07
2018-05-16T21:54:19.783Z,102189.37
2018-05-16T21:56:45.880Z,102198.12
2018-05-16T21:59:12.068Z,102193.17
2018-05-16T22:03:21.139Z,102196.45
2018-05-16T22:05:47.265Z,102198.41
2018-05-16T22:08:13.394Z,102194.17
2018-05-16T22:10:39.519Z,102200.02
2018-05-16T22:13:05.590Z,102198.87
2018-05-16T22:15:31.608Z,102199.52
2018-05-16T22:17:57.720Z,102200.29
2018-05-16T22:20:23.737Z,102194.96
2018-05-16T22:22:49.859Z,102188.20
2018-05-16T22:25:15.916Z,102189.42
2018-05-16T22:27:42.035Z,102192.84
2018-05-16T22:30:08.109Z,102193.28
2018-05-16T22:32:40.206Z,102193.59
2018-05-16T22:35:12.277Z,102194.78
2018-05-16T22:37:45.310Z,102199.22
2018-05-16T22:40:17.631Z,102189.56
2018-05-16T22:42:43.572Z,102191.62
2018-05-16T22:45:09.646Z,102189.35
2018-05-16T22:47:35.854Z,102191.45
2018-05-16T22:50:02.842Z,102198.91
2018-05-16T22:52:28.966Z,102199.87
2018-05-16T22:54:55.280Z,102200.30
2018-05-16T22:57:21.553Z,102199.05
2018-05-16T22:59:47.631Z,102199.33
2018-05-16T23:02:13.733Z,102205.05
2018-05-16T23:04:40.004Z,102204.52
2018-05-16T23:07:06.021Z,102202.21
2018-05-16T23:09:32.151Z,102205.19
2018-05-16T23:11:58.337Z,102200.86
2018-05-16T23:14:24.367Z,102195.10
2018-05-16T23:16:51.064Z,102194.62
2018-05-16T23:19:17.239Z,102193.84
2018-05-16T23:21:43.412Z,102204.89
2018-05-16T23:24:09.790Z,102210.30
2018-05-16T23:26:35.822Z,102203.42
2018-05-16T23:29:01.882Z,102207.27
2018-05-16T23:31:27.917Z,102210.34
2018-05-16T23:33:53.999Z,102210.00
2018-05-16T23:36:20.041Z,102209.88
2018-05-16T23:38:46.045Z,102201.48
2018-05-16T23:41:12.104Z,102211.83
2018-05-16T23:43:38.128Z,102209.45
2018-05-16T23:46:04.165Z,102204.81
2018-05-16T23:48:30.230Z,102212.17
2018-05-16T23:50:56.806Z,102209.62
2018-05-16T23:53:22.881Z,102207.13
2018-05-16T23:55:49.050Z,102213.02
2018-05-16T23:58:15.145Z,102210.16
